createdAt,value
2022-08-26T00:00:53.892Z,6.75
2022-08-26T00:03:21.976Z,6.35
2022-08-26T00:05:49.523Z,6.70
2022-08-26T00:08:17.314Z,6.35
2022-08-26T00:10:44.293Z,6.95
2022-08-26T00:13:11.805Z,6.60
2022-08-26T00:15:39.395Z,6.80
2022-08-26T00:18:21.907Z,6.80
2022-08-26T00:20:49.517Z,6.80
2022-08-26T00:23:17.392Z,6.80
2022-08-26T00:25:44.386Z,7.00
2022-08-26T00:28:11.590Z,7.67
2022-08-26T00:30:38.707Z,7.00
2022-08-26T00:33:06.054Z,7.40
2022-08-26T00:35:35.434Z,7.30
2022-08-26T00:38:03.500Z,7.50
2022-08-26T00:40:37.250Z,6.97
2022-08-26T00:43:05.776Z,7.20
2022-08-26T00:45:46.981Z,8.10
2022-08-26T00:48:17.947Z,7.70
2022-08-26T00:50:52.853Z,7.72
2022-08-26T00:53:24.038Z,7.45
2022-08-26T00:55:59.043Z,7.90
2022-08-26T00:58:29.224Z,8.27
2022-08-26T01:00:56.097Z,7.85
2022-08-26T01:03:27.647Z,8.30
2022-08-26T01:05:57.634Z,8.25
2022-08-26T01:08:24.938Z,8.47
2022-08-26T01:10:54.949Z,8.70
2022-08-26T01:13:23.990Z,8.90
2022-08-26T01:15:55.466Z,9.05
2022-08-26T01:18:23.470Z,8.85
2022-08-26T01:21:10.099Z,9.27
2022-08-26T01:23:41.238Z,8.80
2022-08-26T01:26:21.700Z,9.23
2022-08-26T01:28:51.847Z,9.40
2022-08-26T01:31:23.251Z,9.60
2022-08-26T01:34:01.698Z,9.68
2022-08-26T01:36:29.503Z,10.10
2022-08-26T01:38:56.765Z,10.50
2022-08-26T01:41:27.446Z,10.85
2022-08-26T01:43:57.219Z,10.87
2022-08-26T01:46:28.342Z,10.60
2022-08-26T01:48:57.131Z,11.35
2022-08-26T01:51:26.283Z,11.83
2022-08-26T01:53:53.831Z,11.80
2022-08-26T01:56:23.183Z,12.90
2022-08-26T01:58:54.345Z,13.05
2022-08-26T02:01:22.777Z,13.20
2022-08-26T02:04:15.722Z,13.93
2022-08-26T02:06:43.623Z,14.55
2022-08-26T02:09:11.551Z,16.25
2022-08-26T02:11:38.975Z,16.52
2022-08-26T02:14:13.148Z,16.98
2022-08-26T02:16:42.919Z,16.38
2022-08-26T02:19:18.778Z,17.08
2022-08-26T02:21:51.166Z,18.50
2022-08-26T02:24:27.313Z,18.30
2022-08-26T02:26:56.529Z,18.30
2022-08-26T02:29:44.723Z,19.92
2022-08-26T02:32:11.762Z,18.15
2022-08-26T02:34:40.798Z,19.80
2022-08-26T02:37:11.417Z,19.55
2022-08-26T02:39:40.653Z,19.80
2022-08-26T02:42:07.702Z,20.90
2022-08-26T02:44:34.809Z,21.73
2022-08-26T02:47:01.971Z,22.60
2022-08-26T02:49:28.977Z,22.10
2022-08-26T02:51:56.026Z,23.75
2022-08-26T02:54:23.493Z,22.60
2022-08-26T02:56:50.515Z,22.70
2022-08-26T02:59:17.344Z,21.80
2022-08-26T03:01:44.483Z,22.27
2022-08-26T03:04:12.941Z,24.75
2022-08-26T03:06:41.535Z,23.90
2022-08-26T03:09:08.929Z,25.70
2022-08-26T03:11:36.369Z,25.40
2022-08-26T03:14:04.016Z,25.80
2022-08-26T03:16:37.699Z,27.08
2022-08-26T03:19:07.406Z,27.00
2022-08-26T03:21:35.167Z,26.08
2022-08-26T03:24:03.621Z,27.50
2022-08-26T03:26:31.042Z,27.58
2022-08-26T03:28:57.906Z,27.23
2022-08-26T03:31:25.316Z,29.55
2022-08-26T03:33:53.974Z,28.70
2022-08-26T03:36:23.685Z,28.10
2022-08-26T03:38:51.637Z,29.25
2022-08-26T03:41:18.459Z,27.55
2022-08-26T03:43:45.251Z,27.50
2022-08-26T03:46:14.856Z,28.98
2022-08-26T03:48:41.650Z,27.77
2022-08-26T03:51:14.530Z,29.17
2022-08-26T03:53:46.145Z,32.67
2022-08-26T03:56:12.925Z,32.83
2022-08-26T03:58:39.791Z,30.90
2022-08-26T04:01:10.445Z,29.77
2022-08-26T04:03:37.542Z,30.20
2022-08-26T04:06:04.430Z,31.90
2022-08-26T04:08:31.240Z,31.52
2022-08-26T04:10:58.476Z,31.58
2022-08-26T04:13:25.333Z,32.45
2022-08-26T04:15:52.119Z,29.95
2022-08-26T04:18:18.944Z,29.67
2022-08-26T04:20:45.764Z,29.80
2022-08-26T04:23:12.533Z,30.90
2022-08-26T04:25:39.598Z,31.65
2022-08-26T04:28:07.421Z,31.00
2022-08-26T04:30:38.410Z,32.42
2022-08-26T04:33:12.939Z,30.13
2022-08-26T04:35:40.288Z,29.38
2022-08-26T04:38:10.984Z,29.30
2022-08-26T04:40:42.714Z,28.70
2022-08-26T04:43:13.547Z,28.27
2022-08-26T04:45:41.697Z,28.80
2022-08-26T04:48:08.494Z,28.67
2022-08-26T04:50:37.944Z,29.30
2022-08-26T04:53:05.102Z,28.42
2022-08-26T04:55:39.733Z,31.38
2022-08-26T04:58:10.132Z,31.67
2022-08-26T05:00:37.503Z,29.97
2022-08-26T05:03:04.419Z,30.20
2022-08-26T05:05:32.448Z,29.63
2022-08-26T05:07:59.227Z,28.92
2022-08-26T05:10:26.104Z,30.27
2022-08-26T05:12:53.432Z,30.00
2022-08-26T05:15:20.413Z,29.17
2022-08-26T05:17:47.178Z,28.10
2022-08-26T05:20:14.135Z,27.85
2022-08-26T05:22:40.900Z,28.17
2022-08-26T05:25:08.090Z,28.30
2022-08-26T05:27:34.946Z,27.90
2022-08-26T05:30:01.820Z,27.40
2022-08-26T05:32:28.963Z,26.70
2022-08-26T05:34:56.111Z,25.85
2022-08-26T05:37:23.182Z,24.10
2022-08-26T05:39:51.127Z,25.20
2022-08-26T05:42:18.293Z,26.40
2022-08-26T05:44:51.855Z,24.80
2022-08-26T05:47:22.757Z,25.07
2022-08-26T05:49:51.659Z,23.80
2022-08-26T05:52:19.182Z,22.70
2022-08-26T05:54:45.995Z,21.58
2022-08-26T05:57:14.657Z,22.95
2022-08-26T05:59:41.497Z,23.77
2022-08-26T06:02:08.784Z,24.35
2022-08-26T06:04:35.958Z,24.70
2022-08-26T06:07:03.255Z,23.77
2022-08-26T06:09:32.361Z,22.87
2022-08-26T06:11:59.399Z,20.92
2022-08-26T06:14:26.203Z,19.67
2022-08-26T06:16:53.119Z,21.58
2022-08-26T06:19:19.893Z,21.13
2022-08-26T06:21:54.010Z,22.60
2022-08-26T06:24:21.163Z,23.13
2022-08-26T06:26:56.732Z,23.00
2022-08-26T06:29:25.729Z,22.98
2022-08-26T06:31:53.857Z,24.92
2022-08-26T06:34:20.753Z,23.98
2022-08-26T06:36:48.002Z,22.00
2022-08-26T06:39:16.871Z,21.48
2022-08-26T06:41:44.874Z,21.48
2022-08-26T06:44:13.085Z,21.90
2022-08-26T06:46:41.261Z,21.90
2022-08-26T06:49:08.272Z,21.08
2022-08-26T06:51:38.344Z,20.75
2022-08-26T06:54:06.321Z,19.92
2022-08-26T06:56:40.175Z,19.70
2022-08-26T06:59:07.873Z,18.85
2022-08-26T07:01:38.247Z,18.45
2022-08-26T07:04:10.662Z,17.50
2022-08-26T07:06:40.361Z,18.10
2022-08-26T07:09:10.161Z,18.77
2022-08-26T07:11:38.359Z,18.88
2022-08-26T07:14:05.893Z,19.80
2022-08-26T07:16:32.664Z,19.33
2022-08-26T07:18:59.900Z,18.03
2022-08-26T07:21:30.231Z,18.27
2022-08-26T07:24:01.472Z,18.73
2022-08-26T07:26:30.456Z,18.42
2022-08-26T07:28:58.480Z,18.65
2022-08-26T07:31:28.049Z,21.95
2022-08-26T07:33:57.441Z,18.48
2022-08-26T07:36:25.909Z,17.10
2022-08-26T07:38:52.935Z,15.85
2022-08-26T07:41:21.979Z,16.50
2022-08-26T07:43:49.955Z,16.40
2022-08-26T07:46:16.717Z,15.48
2022-08-26T07:48:46.064Z,16.30
2022-08-26T07:51:15.004Z,17.20
2022-08-26T07:53:43.095Z,16.80
2022-08-26T07:56:09.909Z,16.20
2022-08-26T07:58:38.387Z,16.00
2022-08-26T08:01:05.630Z,16.52
2022-08-26T08:03:34.280Z,16.65
2022-08-26T08:06:01.089Z,16.15
2022-08-26T08:08:29.216Z,17.10
2022-08-26T08:10:57.317Z,16.67
2022-08-26T08:13:24.596Z,16.40
2022-08-26T08:15:51.504Z,17.20
2022-08-26T08:18:20.584Z,16.55
2022-08-26T08:20:59.223Z,16.10
2022-08-26T08:23:32.584Z,18.57
2022-08-26T08:26:08.472Z,15.27
2022-08-26T08:28:36.920Z,15.02
2022-08-26T08:31:04.209Z,14.00
2022-08-26T08:33:33.667Z,13.37
2022-08-26T08:36:01.041Z,13.40
2022-08-26T08:38:28.859Z,13.18
2022-08-26T08:40:55.639Z,13.23
2022-08-26T08:43:32.233Z,12.30
2022-08-26T08:46:11.066Z,11.90
2022-08-26T08:48:45.534Z,11.25
2022-08-26T08:51:27.351Z,10.80
2022-08-26T08:53:56.143Z,11.25
2022-08-26T08:56:35.260Z,10.70
2022-08-26T08:59:13.983Z,10.80
2022-08-26T09:01:59.568Z,10.73
2022-08-26T09:04:54.779Z,10.30
2022-08-26T09:07:38.111Z,9.45
2022-08-26T09:10:28.809Z,8.70
2022-08-26T09:12:55.601Z,9.02
2022-08-26T09:15:30.288Z,9.20
2022-08-26T09:18:00.350Z,9.73
2022-08-26T09:20:56.694Z,9.57
2022-08-26T09:23:23.569Z,9.88
2022-08-26T09:26:01.136Z,9.90
2022-08-26T09:28:30.357Z,10.10
2022-08-26T09:31:14.339Z,10.90
2022-08-26T09:33:41.794Z,10.65
2022-08-26T09:36:24.813Z,10.50
2022-08-26T09:38:53.483Z,10.80
2022-08-26T09:41:25.075Z,11.20
2022-08-26T09:44:08.396Z,10.73
2022-08-26T09:46:46.524Z,10.50
2022-08-26T09:49:56.358Z,11.60
2022-08-26T09:52:24.720Z,11.18
2022-08-26T09:55:10.782Z,11.70
2022-08-26T09:57:55.177Z,11.43
2022-08-26T10:00:40.982Z,10.50
2022-08-26T10:03:12.154Z,10.05
2022-08-26T10:06:06.006Z,9.50
2022-08-26T10:08:37.126Z,9.73
2022-08-26T10:11:22.486Z,9.40
2022-08-26T10:13:58.440Z,9.60
2022-08-26T10:16:36.911Z,9.50
2022-08-26T10:19:11.384Z,9.60
2022-08-26T10:21:49.945Z,8.90
2022-08-26T10:24:32.495Z,8.40
2022-08-26T10:27:03.207Z,9.10
2022-08-26T10:29:40.901Z,9.63
2022-08-26T10:32:22.667Z,8.80
2022-08-26T10:34:49.663Z,8.65
2022-08-26T10:37:23.009Z,8.30
2022-08-26T10:40:07.060Z,8.18
2022-08-26T10:42:44.871Z,8.00
2022-08-26T10:45:16.569Z,7.72
2022-08-26T10:47:50.640Z,7.80
2022-08-26T10:50:20.307Z,7.28
2022-08-26T10:52:54.672Z,7.40
2022-08-26T10:55:48.153Z,7.25
2022-08-26T10:58:26.060Z,7.60
2022-08-26T11:01:10.276Z,7.47
2022-08-26T11:03:52.552Z,7.23
2022-08-26T11:06:19.330Z,7.18
2022-08-26T11:08:53.320Z,8.23
2022-08-26T11:11:49.666Z,8.10
2022-08-26T11:14:29.320Z,7.30
2022-08-26T11:16:58.821Z,7.20
2022-08-26T11:19:58.813Z,7.30
2022-08-26T11:22:31.088Z,7.30
2022-08-26T11:24:57.835Z,7.30
2022-08-26T11:27:36.698Z,7.20
2022-08-26T11:30:12.566Z,6.60
2022-08-26T11:32:40.277Z,7.07
2022-08-26T11:35:07.143Z,6.57
2022-08-26T11:37:41.210Z,6.50
2022-08-26T11:40:36.430Z,8.30
2022-08-26T11:43:21.125Z,7.00
2022-08-26T11:45:58.858Z,6.40
2022-08-26T11:48:34.991Z,6.30
2022-08-26T11:51:24.674Z,6.30
2022-08-26T11:53:51.634Z,6.57
2022-08-26T11:56:27.454Z,6.70
2022-08-26T11:59:02.014Z,7.30
2022-08-26T12:01:38.350Z,6.40
2022-08-26T12:04:08.843Z,7.00
2022-08-26T12:06:50.573Z,7.65
2022-08-26T12:09:22.611Z,7.30
2022-08-26T12:11:49.928Z,8.40
2022-08-26T12:14:21.953Z,6.90
2022-08-26T12:16:48.993Z,6.38
2022-08-26T12:19:25.894Z,6.22
2022-08-26T12:22:22.200Z,6.30
2022-08-26T12:24:53.121Z,6.03
2022-08-26T12:27:27.246Z,7.88
2022-08-26T12:30:12.506Z,6.18
2022-08-26T12:33:22.259Z,6.57
2022-08-26T12:35:54.337Z,5.50
2022-08-26T12:38:25.374Z,5.85
2022-08-26T12:40:52.539Z,6.00
2022-08-26T12:43:45.286Z,5.60
2022-08-26T12:46:29.650Z,5.60
2022-08-26T12:48:56.961Z,5.50
2022-08-26T12:51:29.988Z,5.53
2022-08-26T12:53:57.354Z,5.50
2022-08-26T12:56:37.534Z,5.82
2022-08-26T12:59:23.390Z,6.20
2022-08-26T13:01:51.049Z,7.03
2022-08-26T13:04:42.832Z,6.00
2022-08-26T13:07:35.873Z,5.20
2022-08-26T13:10:02.711Z,6.10
2022-08-26T13:12:34.963Z,5.60
2022-08-26T13:15:04.279Z,5.40
2022-08-26T13:17:31.262Z,5.40
2022-08-26T13:20:03.228Z,5.80
2022-08-26T13:22:30.963Z,5.97
2022-08-26T13:24:57.847Z,5.88
2022-08-26T13:27:26.330Z,6.22
2022-08-26T13:29:54.083Z,7.50
2022-08-26T13:32:21.572Z,6.85
2022-08-26T13:34:51.540Z,6.20
2022-08-26T13:37:18.462Z,5.88
2022-08-26T13:39:45.286Z,5.83
2022-08-26T13:42:12.100Z,6.40
2022-08-26T13:44:38.995Z,6.32
2022-08-26T13:47:06.894Z,5.72
2022-08-26T13:49:33.741Z,5.80
2022-08-26T13:52:00.546Z,6.13
2022-08-26T13:54:27.389Z,6.38
2022-08-26T13:56:54.229Z,6.00
2022-08-26T13:59:21.074Z,5.70
2022-08-26T14:01:47.923Z,6.10
2022-08-26T14:04:14.779Z,5.85
2022-08-26T14:06:41.585Z,5.50
2022-08-26T14:09:08.393Z,5.88
2022-08-26T14:11:50.631Z,6.27
2022-08-26T14:14:20.969Z,6.90
2022-08-26T14:16:59.544Z,6.38
2022-08-26T14:19:28.659Z,5.65
2022-08-26T14:21:55.548Z,5.90
2022-08-26T14:24:22.461Z,5.95
2022-08-26T14:26:49.270Z,5.40
2022-08-26T14:29:16.824Z,5.60
2022-08-26T14:31:44.316Z,5.97
2022-08-26T14:34:13.765Z,5.68
2022-08-26T14:36:40.624Z,5.70
2022-08-26T14:39:10.403Z,5.85
2022-08-26T14:41:53.893Z,6.32
2022-08-26T14:44:24.365Z,6.53
2022-08-26T14:46:52.385Z,6.50
2022-08-26T14:49:20.088Z,5.90
2022-08-26T14:51:46.963Z,6.60
2022-08-26T14:54:15.224Z,6.50
2022-08-26T14:56:54.606Z,6.20
2022-08-26T14:59:25.497Z,6.40
2022-08-26T15:01:53.337Z,7.30
2022-08-26T15:04:20.928Z,6.30
2022-08-26T15:06:48.613Z,7.40
2022-08-26T15:09:16.402Z,6.85
2022-08-26T15:11:43.293Z,7.18
2022-08-26T15:14:18.997Z,6.72
2022-08-26T15:16:51.037Z,6.93
2022-08-26T15:19:18.944Z,7.28
2022-08-26T15:21:46.065Z,7.05
2022-08-26T15:24:14.106Z,7.00
2022-08-26T15:26:41.253Z,7.07
2022-08-26T15:29:08.104Z,7.30
2022-08-26T15:31:35.524Z,9.13
2022-08-26T15:34:11.016Z,9.40
2022-08-26T15:36:40.166Z,9.07
2022-08-26T15:39:07.717Z,8.00
2022-08-26T15:41:35.364Z,7.88
2022-08-26T15:44:03.480Z,7.90
2022-08-26T15:46:30.981Z,9.52
2022-08-26T15:48:57.875Z,8.30
2022-08-26T15:51:31.547Z,7.30
2022-08-26T15:53:59.565Z,8.10
2022-08-26T15:56:28.864Z,7.60
2022-08-26T15:58:57.207Z,7.70
2022-08-26T16:01:27.721Z,8.23
2022-08-26T16:03:55.805Z,8.10
2022-08-26T16:06:25.731Z,7.53
2022-08-26T16:08:52.525Z,7.50
2022-08-26T16:11:23.309Z,7.55
2022-08-26T16:13:50.529Z,7.70
2022-08-26T16:16:17.951Z,7.50
2022-08-26T16:18:45.558Z,7.45
2022-08-26T16:21:20.191Z,7.13
2022-08-26T16:23:47.417Z,7.77
2022-08-26T16:26:17.095Z,6.93
2022-08-26T16:28:44.051Z,7.20
2022-08-26T16:31:11.678Z,6.60
2022-08-26T16:33:38.813Z,6.13
2022-08-26T16:36:07.044Z,5.70
2022-08-26T16:38:34.712Z,5.40
2022-08-26T16:41:02.166Z,5.60
2022-08-26T16:43:29.265Z,5.90
2022-08-26T16:45:56.592Z,6.40
2022-08-26T16:48:24.027Z,6.70
2022-08-26T16:50:51.589Z,5.82
2022-08-26T16:53:18.438Z,6.18
2022-08-26T16:55:49.413Z,6.90
2022-08-26T16:58:17.336Z,6.40
2022-08-26T17:00:44.141Z,6.72
2022-08-26T17:03:11.174Z,6.70
2022-08-26T17:05:38.128Z,7.28
2022-08-26T17:08:05.264Z,8.30
2022-08-26T17:10:32.716Z,6.43
2022-08-26T17:13:00.121Z,6.00
2022-08-26T17:15:27.387Z,6.30
2022-08-26T17:17:55.262Z,5.20
2022-08-26T17:20:23.531Z,5.40
2022-08-26T17:22:52.058Z,5.25
2022-08-26T17:25:31.790Z,4.70
2022-08-26T17:27:59.194Z,5.10
2022-08-26T17:30:26.009Z,4.53
2022-08-26T17:32:53.894Z,5.47
2022-08-26T17:35:20.926Z,4.83
2022-08-26T17:37:47.890Z,4.43
2022-08-26T17:40:18.083Z,4.50
2022-08-26T17:42:45.427Z,5.00
2022-08-26T17:45:13.152Z,19.05
2022-08-26T17:47:40.555Z,12.63
2022-08-26T17:50:10.709Z,8.60
2022-08-26T17:52:38.491Z,5.85
2022-08-26T17:55:07.173Z,9.20
2022-08-26T17:57:38.789Z,4.70
2022-08-26T18:00:11.971Z,3.97
2022-08-26T18:02:39.246Z,3.78
2022-08-26T18:05:08.060Z,3.90
2022-08-26T18:07:43.533Z,3.40
2022-08-26T18:10:13.694Z,3.90
2022-08-26T18:12:41.129Z,4.15
2022-08-26T18:15:09.379Z,3.65
2022-08-26T18:17:36.608Z,3.60
2022-08-26T18:20:03.634Z,3.50
2022-08-26T18:22:30.409Z,4.15
2022-08-26T18:24:59.003Z,3.60
2022-08-26T18:27:26.722Z,3.60
2022-08-26T18:29:53.510Z,3.30
2022-08-26T18:32:20.294Z,3.42
2022-08-26T18:34:47.079Z,3.80
2022-08-26T18:40:00.698Z,12.57
2022-08-26T18:42:27.845Z,4.78
2022-08-26T18:44:54.702Z,6.10
2022-08-26T18:47:21.697Z,9.00
2022-08-26T18:49:48.580Z,4.90
2022-08-26T18:52:15.750Z,4.25
2022-08-26T18:54:42.938Z,3.80
2022-08-26T18:57:09.748Z,4.00
2022-08-26T18:59:36.570Z,4.22
2022-08-26T19:02:03.679Z,4.28
2022-08-26T19:04:30.528Z,4.10
2022-08-26T19:06:57.476Z,3.83
2022-08-26T19:09:24.249Z,4.10
2022-08-26T19:11:51.048Z,3.85
2022-08-26T19:14:18.870Z,5.13
2022-08-26T19:16:47.916Z,19.38
2022-08-26T19:19:16.023Z,16.50
2022-08-26T19:21:42.885Z,7.07
2022-08-26T19:24:12.303Z,4.00
2022-08-26T19:26:39.127Z,3.95
2022-08-26T19:29:06.021Z,4.32
2022-08-26T19:31:32.861Z,4.60
2022-08-26T19:33:59.678Z,5.10
2022-08-26T19:36:27.948Z,5.20
2022-08-26T19:38:55.165Z,4.55
2022-08-26T19:41:36.582Z,9.57
2022-08-26T19:44:09.128Z,9.85
2022-08-26T19:46:36.227Z,9.05
2022-08-26T19:49:03.483Z,5.25
2022-08-26T19:51:32.310Z,4.50
2022-08-26T19:54:00.700Z,4.70
2022-08-26T19:56:28.247Z,4.80
2022-08-26T19:58:56.048Z,4.68
2022-08-26T20:01:23.492Z,5.15
2022-08-26T20:03:50.515Z,4.70
2022-08-26T20:06:17.910Z,5.00
2022-08-26T20:08:45.177Z,4.60
2022-08-26T20:11:14.633Z,4.80
2022-08-26T20:13:42.666Z,5.15
2022-08-26T20:16:09.589Z,5.53
2022-08-26T20:18:36.408Z,5.30
2022-08-26T20:21:03.265Z,5.30
2022-08-26T20:23:30.050Z,6.15
2022-08-26T20:25:56.880Z,5.43
2022-08-26T20:28:23.709Z,5.25
2022-08-26T20:30:50.558Z,5.65
2022-08-26T20:33:17.382Z,5.90
2022-08-26T20:35:44.173Z,6.10
2022-08-26T20:38:11.269Z,6.00
2022-08-26T20:40:38.183Z,6.80
2022-08-26T20:43:05.050Z,7.07
2022-08-26T20:45:32.053Z,6.50
2022-08-26T20:47:59.003Z,6.22
2022-08-26T20:50:26.045Z,7.05
2022-08-26T20:52:52.884Z,10.73
2022-08-26T20:55:20.671Z,6.90
2022-08-26T20:57:48.857Z,6.40
2022-08-26T21:00:15.936Z,6.57
2022-08-26T21:02:44.449Z,6.10
2022-08-26T21:05:11.306Z,6.07
2022-08-26T21:07:38.161Z,6.10
2022-08-26T21:10:05.784Z,6.75
2022-08-26T21:12:32.703Z,6.30
2022-08-26T21:14:59.529Z,6.35
2022-08-26T21:17:26.426Z,6.70
2022-08-26T21:19:53.860Z,6.90
2022-08-26T21:22:20.939Z,6.20
2022-08-26T21:24:48.008Z,6.45
2022-08-26T21:27:15.863Z,6.75
2022-08-26T21:29:52.950Z,7.10
2022-08-26T21:32:19.757Z,7.45
2022-08-26T21:34:46.601Z,7.40
2022-08-26T21:37:16.816Z,7.10
2022-08-26T21:39:44.359Z,7.90
2022-08-26T21:42:11.205Z,7.57
2022-08-26T21:44:38.015Z,7.32
2022-08-26T21:47:05.131Z,8.10
2022-08-26T21:49:31.970Z,7.70
2022-08-26T21:52:01.266Z,8.60
2022-08-26T21:54:28.137Z,8.70
2022-08-26T21:56:54.945Z,8.90
2022-08-26T21:59:21.789Z,8.40
2022-08-26T22:01:48.790Z,8.10
2022-08-26T22:04:16.840Z,7.80
2022-08-26T22:06:47.454Z,8.10
2022-08-26T22:09:17.130Z,8.63
2022-08-26T22:11:44.652Z,8.60
2022-08-26T22:14:12.203Z,8.63
2022-08-26T22:16:39.262Z,8.50
2022-08-26T22:19:06.417Z,8.20
2022-08-26T22:21:33.274Z,8.40
2022-08-26T22:24:00.202Z,8.23
2022-08-26T22:26:30.600Z,8.50
2022-08-26T22:28:59.517Z,7.40
2022-08-26T22:31:37.121Z,7.60
2022-08-26T22:34:11.452Z,8.30
2022-08-26T22:36:44.059Z,8.60
2022-08-26T22:39:12.873Z,8.38
2022-08-26T22:41:39.809Z,8.70
2022-08-26T22:44:06.630Z,8.43
2022-08-26T22:46:33.487Z,9.13
2022-08-26T22:49:00.363Z,9.10
2022-08-26T22:51:27.160Z,8.50
2022-08-26T22:53:53.963Z,9.80
2022-08-26T22:56:20.801Z,10.43
2022-08-26T22:58:47.901Z,9.80
2022-08-26T23:01:14.908Z,9.73
2022-08-26T23:03:41.928Z,10.20
2022-08-26T23:06:09.541Z,9.95
2022-08-26T23:08:37.456Z,9.55
2022-08-26T23:11:08.660Z,9.80
2022-08-26T23:13:35.577Z,9.10
2022-08-26T23:16:05.271Z,9.27
2022-08-26T23:18:32.843Z,9.90
2022-08-26T23:20:59.719Z,10.13
2022-08-26T23:23:27.262Z,10.93
2022-08-26T23:25:55.674Z,10.10
2022-08-26T23:28:23.106Z,10.60
2022-08-26T23:30:50.428Z,10.25
2022-08-26T23:33:17.265Z,10.23
2022-08-26T23:35:44.113Z,9.95
2022-08-26T23:38:11.775Z,10.70
2022-08-26T23:40:41.082Z,10.48
2022-08-26T23:43:09.815Z,10.25
2022-08-26T23:45:36.868Z,11.15
2022-08-26T23:48:04.449Z,12.83
2022-08-26T23:50:31.933Z,13.40
2022-08-26T23:52:58.780Z,12.82
2022-08-26T23:55:25.666Z,12.88
2022-08-26T23:57:52.679Z,12.95
